Time;durP1;ratioP1;P1;durP2;ratioP2;P2;SDS_P1;SDS_P2;PMS_P1;PMS_P2;Temp;Humidity;BMP_temperature;BMP_pressure;BME280_temperature;BME280_humidity;BME280_pressure;Samples;Min_cycle;Max_cycle;Signal;HPM_P1;HPM_P2
2023/01/04 00:01:17;;;;;;;9.43;3.83;;;8.10;99.90;;;;;;5043482;28;20041;-83
2023/01/04 00:03:43;;;;;;;6.65;3.95;;;8.20;99.90;;;;;;5021802;28;20496;-84
2023/01/04 00:06:14;;;;;;;10.00;4.53;;;8.20;99.90;;;;;;5038011;28;20062;-84
2023/01/04 00:08:39;;;;;;;8.32;3.67;;;8.10;99.90;;;;;;5022139;28;20517;-83
2023/01/04 00:11:17;;;;;;;9.45;3.58;;;8.20;99.90;;;;;;5022624;28;20116;-84
2023/01/04 00:13:44;;;;;;;11.90;3.67;;;8.10;99.90;;;;;;5043520;28;20068;-84
2023/01/04 00:16:13;;;;;;;9.00;3.58;;;8.30;99.90;;;;;;5052030;28;20052;-84
2023/01/04 00:18:38;;;;;;;9.55;3.35;;;8.30;99.90;;;;;;5039682;28;20045;-84
2023/01/04 00:21:12;;;;;;;12.02;3.33;;;8.20;99.90;;;;;;5042087;28;20041;-84
2023/01/04 00:23:38;;;;;;;5.20;3.25;;;8.20;99.90;;;;;;5040932;28;20041;-84
2023/01/04 00:26:12;;;;;;;8.70;3.17;;;8.20;99.90;;;;;;5023681;28;20037;-84
2023/01/04 00:28:38;;;;;;;10.73;3.33;;;8.30;99.90;;;;;;5023071;28;20091;-84
2023/01/04 00:31:06;;;;;;;9.55;3.88;;;8.30;99.90;;;;;;5023830;28;20037;-84
2023/01/04 00:33:32;;;;;;;7.72;3.50;;;8.20;99.90;;;;;;5023675;28;20049;-84
2023/01/04 00:36:13;;;;;;;8.93;3.38;;;8.20;99.90;;;;;;5040852;28;20064;-84
2023/01/04 00:38:40;;;;;;;10.85;3.90;;;8.30;99.90;;;;;;5041198;28;20044;-84
2023/01/04 00:41:06;;;;;;;10.88;4.10;;;8.20;99.90;;;;;;5040281;28;20041;-84
2023/01/04 00:43:32;;;;;;;8.32;3.42;;;8.40;99.90;;;;;;5039379;28;20380;-84
2023/01/04 00:45:58;;;;;;;12.07;4.13;;;8.30;99.90;;;;;;5022827;28;20758;-84
2023/01/04 00:48:24;;;;;;;13.05;4.82;;;8.20;99.90;;;;;;5027869;28;20034;-84
2023/01/04 00:50:50;;;;;;;12.45;5.40;;;8.30;99.90;;;;;;5003214;28;20042;-85
2023/01/04 00:53:17;;;;;;;7.95;3.95;;;8.40;99.90;;;;;;5002129;28;20046;-83
2023/01/04 00:55:43;;;;;;;13.32;4.07;;;8.40;99.90;;;;;;5019094;28;20046;-84
2023/01/04 00:58:08;;;;;;;7.82;3.60;;;8.40;99.90;;;;;;5002653;28;20077;-84
2023/01/04 01:00:34;;;;;;;5.85;3.75;;;8.30;99.90;;;;;;5018208;28;20500;-84
2023/01/04 01:03:00;;;;;;;9.10;3.95;;;8.20;99.90;;;;;;5000904;28;20492;-84
2023/01/04 01:05:26;;;;;;;7.55;3.78;;;8.40;99.90;;;;;;5020173;28;20037;-84
2023/01/04 01:07:52;;;;;;;11.20;4.70;;;8.30;99.90;;;;;;5003176;28;20045;-84
2023/01/04 01:10:17;;;;;;;11.20;4.28;;;8.30;99.90;;;;;;5020472;28;20038;-84
2023/01/04 01:12:43;;;;;;;6.63;4.30;;;8.10;99.90;;;;;;5000719;28;20454;-84
2023/01/04 01:15:09;;;;;;;7.15;4.07;;;8.30;99.90;;;;;;5028432;28;20049;-84
2023/01/04 01:17:35;;;;;;;12.05;4.20;;;8.20;99.90;;;;;;5029977;28;20057;-84
2023/01/04 01:20:03;;;;;;;12.13;5.47;;;8.10;99.90;;;;;;5004121;28;20038;-84
2023/01/04 01:22:29;;;;;;;16.98;4.72;;;8.10;99.90;;;;;;5003866;28;20042;-84
2023/01/04 01:24:55;;;;;;;5.82;3.55;;;8.10;99.90;;;;;;5004016;28;20057;-85
2023/01/04 01:27:20;;;;;;;9.65;4.00;;;8.10;99.90;;;;;;5002645;28;20060;-84
2023/01/04 01:29:46;;;;;;;12.30;4.50;;;8.10;99.90;;;;;;5027462;28;20049;-84
2023/01/04 01:32:11;;;;;;;9.20;4.07;;;8.10;99.90;;;;;;5015799;28;20042;-84
2023/01/04 01:34:37;;;;;;;11.18;4.30;;;8.20;99.90;;;;;;5012420;28;20048;-83
2023/01/04 01:37:03;;;;;;;6.93;3.70;;;8.10;99.90;;;;;;5020806;28;20068;-84
2023/01/04 01:39:28;;;;;;;11.50;3.90;;;8.10;99.90;;;;;;5026139;28;20037;-84
2023/01/04 01:41:54;;;;;;;7.65;3.97;;;8.10;99.90;;;;;;5032410;28;20045;-84
2023/01/04 01:44:42;;;;;;;7.35;3.42;;;8.10;99.90;;;;;;5027065;28;20045;-83
2023/01/04 01:47:27;;;;;;;8.95;4.50;;;8.10;99.90;;;;;;5020628;28;20046;-84
2023/01/04 01:49:53;;;;;;;11.40;3.53;;;8.40;99.90;;;;;;5002290;28;20038;-84
2023/01/04 01:52:31;;;;;;;9.77;3.63;;;8.10;99.90;;;;;;5003055;28;20046;-86
2023/01/04 01:55:03;;;;;;;6.28;3.60;;;8.20;99.90;;;;;;5004238;28;20038;-84
2023/01/04 01:57:33;;;;;;;13.63;4.43;;;8.10;99.90;;;;;;5020927;28;20096;-84
2023/01/04 02:00:03;;;;;;;6.68;3.85;;;8.40;99.90;;;;;;5002368;28;20153;-85
2023/01/04 02:02:29;;;;;;;6.57;3.78;;;8.40;99.90;;;;;;5002177;28;20046;-83
2023/01/04 02:04:55;;;;;;;12.55;3.30;;;8.10;99.90;;;;;;5018218;28;20040;-84
2023/01/04 02:07:24;;;;;;;8.35;3.80;;;8.30;99.90;;;;;;5001361;28;20042;-84
2023/01/04 02:09:50;;;;;;;7.65;3.50;;;8.40;99.90;;;;;;5001221;28;20038;-84
2023/01/04 02:12:16;;;;;;;8.20;3.40;;;8.10;99.90;;;;;;5002883;28;20075;-84
2023/01/04 02:14:45;;;;;;;9.82;3.58;;;8.40;99.90;;;;;;5033825;28;20038;-83
2023/01/04 02:17:22;;;;;;;8.68;4.72;;;8.40;99.90;;;;;;5030936;28;20046;-84
2023/01/04 02:19:59;;;;;;;4.68;3.20;;;8.40;99.90;;;;;;5027184;28;20046;-85
2023/01/04 02:22:58;;;;;;;7.40;3.50;;;8.30;99.90;;;;;;5005112;28;20042;-83
2023/01/04 02:25:56;;;;;;;6.40;3.53;;;8.20;99.90;;;;;;5022392;28;20084;-83
2023/01/04 02:28:40;;;;;;;7.75;3.58;;;8.20;99.90;;;;;;5022720;28;20044;-83
2023/01/04 02:31:38;;;;;;;6.95;3.30;;;8.30;99.90;;;;;;5020996;28;20037;-83
2023/01/04 02:34:29;;;;;;;3.97;2.72;;;8.20;99.90;;;;;;5019559;28;20113;-83
2023/01/04 02:37:19;;;;;;;4.95;2.90;;;8.50;99.90;;;;;;5004666;28;20046;-82
2023/01/04 02:40:09;;;;;;;4.85;3.00;;;8.20;99.90;;;;;;5005431;28;20038;-81
2023/01/04 02:45:40;;;;;;;3.97;2.03;;;8.20;99.90;;;;;;5029855;28;20061;-82
2023/01/04 02:50:57;;;;;;;3.50;2.03;;;8.40;99.90;;;;;;5022710;28;20061;-83
2023/01/04 02:53:31;;;;;;;3.70;2.10;;;8.30;99.90;;;;;;5004612;28;20046;-83
2023/01/04 02:56:14;;;;;;;5.90;2.22;;;8.60;99.90;;;;;;5028578;28;20098;-82
2023/01/04 02:58:52;;;;;;;4.35;1.98;;;8.30;99.90;;;;;;5024772;28;20034;-81
2023/01/04 03:07:44;;;;;;;8.57;2.03;;;8.30;99.90;;;;;;5020912;28;20042;-82
2023/01/04 03:10:43;;;;;;;2.78;1.90;;;8.30;99.90;;;;;;5020297;28;20098;-81
2023/01/04 03:13:17;;;;;;;4.10;1.90;;;8.40;99.90;;;;;;5018965;28;20052;-81
2023/01/04 03:15:49;;;;;;;3.40;1.95;;;8.60;99.90;;;;;;5006065;28;20060;-82
2023/01/04 03:18:28;;;;;;;3.47;1.77;;;8.70;99.90;;;;;;5025535;28;20049;-81
2023/01/04 03:20:56;;;;;;;6.22;2.45;;;8.40;99.90;;;;;;5032545;28;20037;-81
2023/01/04 03:50:37;;;;;;;2.95;1.38;;;8.90;99.90;;;;;;4941176;29;20039;-81
2023/01/04 03:53:04;;;;;;;2.65;1.45;;;9.00;99.90;;;;;;4983653;28;20046;-82
2023/01/04 03:55:32;;;;;;;2.55;1.58;;;8.80;99.90;;;;;;5000855;28;20511;-81
2023/01/04 03:57:58;;;;;;;1.80;1.25;;;9.10;99.90;;;;;;5016780;28;20104;-81
2023/01/04 04:00:24;;;;;;;4.38;1.50;;;9.10;99.90;;;;;;5016719;28;20045;-81
2023/01/04 04:02:49;;;;;;;2.42;1.60;;;8.90;99.90;;;;;;5015349;28;20045;-81
2023/01/04 04:10:49;;;;;;;2.17;1.60;;;9.30;99.90;;;;;;5016870;28;20408;-81
2023/01/04 04:13:14;;;;;;;2.55;1.70;;;9.20;99.90;;;;;;5016284;28;20046;-81
2023/01/04 04:15:40;;;;;;;2.55;1.60;;;9.20;99.90;;;;;;5016463;28;20070;-81
2023/01/04 04:18:06;;;;;;;3.35;1.58;;;9.30;99.90;;;;;;5016591;28;20073;-81
2023/01/04 04:20:32;;;;;;;2.17;1.75;;;9.30;99.90;;;;;;5031314;28;20030;-81
2023/01/04 04:22:57;;;;;;;3.60;1.70;;;9.50;99.90;;;;;;5024528;28;20077;-82
2023/01/04 04:25:23;;;;;;;4.38;2.13;;;9.40;99.90;;;;;;5017884;28;20056;-80
2023/01/04 04:27:48;;;;;;;2.10;1.50;;;9.60;99.90;;;;;;5000079;28;20121;-81
2023/01/04 04:30:14;;;;;;;3.83;1.48;;;9.40;99.90;;;;;;5017488;28;20092;-83
2023/01/04 04:32:39;;;;;;;3.03;1.92;;;9.60;99.90;;;;;;5001653;28;20042;-82
2023/01/04 04:35:05;;;;;;;3.03;2.22;;;9.70;99.90;;;;;;5018023;28;20041;-82
2023/01/04 04:37:32;;;;;;;5.72;2.47;;;9.60;99.90;;;;;;5022243;28;20045;-82
2023/01/04 04:39:58;;;;;;;4.47;2.40;;;9.60;99.90;;;;;;5022779;28;20423;-83
2023/01/04 04:42:24;;;;;;;3.17;2.63;;;9.80;99.90;;;;;;5017962;28;20042;-82
2023/01/04 04:44:49;;;;;;;3.83;2.85;;;9.70;99.90;;;;;;5016884;28;20034;-83
2023/01/04 04:47:15;;;;;;;3.25;2.47;;;9.70;99.90;;;;;;5016436;28;20092;-82
2023/01/04 04:49:40;;;;;;;4.60;3.00;;;9.90;99.90;;;;;;5000912;28;20053;-83
2023/01/04 04:52:06;;;;;;;4.53;2.60;;;9.90;99.90;;;;;;5000606;28;20057;-83
2023/01/04 04:54:31;;;;;;;6.40;3.20;;;9.70;99.90;;;;;;5016290;28;20073;-82
2023/01/04 04:56:57;;;;;;;3.88;2.97;;;9.90;99.90;;;;;;5016222;28;20515;-83
2023/01/04 04:59:23;;;;;;;4.72;3.55;;;10.00;99.90;;;;;;4999870;28;20046;-83
2023/01/04 05:01:48;;;;;;;3.85;3.10;;;9.80;99.90;;;;;;5000575;28;20049;-83
2023/01/04 05:04:15;;;;;;;4.95;3.50;;;10.00;99.90;;;;;;5015541;28;20132;-82
2023/01/04 05:06:42;;;;;;;3.67;3.00;;;9.80;99.90;;;;;;5018505;28;20404;-83
2023/01/04 05:09:09;;;;;;;3.88;3.15;;;9.80;99.90;;;;;;5002999;28;20109;-83
2023/01/04 05:14:18;;;;;;;4.13;3.13;;;10.10;99.90;;;;;;5018469;28;20068;-82
2023/01/04 05:16:44;;;;;;;4.75;3.30;;;10.00;99.90;;;;;;5019082;28;20073;-82
2023/01/04 05:19:09;;;;;;;5.50;3.58;;;10.00;99.90;;;;;;5019944;28;20131;-83
2023/01/04 05:21:35;;;;;;;7.57;3.70;;;10.10;99.90;;;;;;5029363;28;20049;-82
2023/01/04 05:24:01;;;;;;;4.43;3.00;;;10.20;99.90;;;;;;5016414;28;20068;-83
2023/01/04 05:26:26;;;;;;;4.38;2.85;;;10.30;99.90;;;;;;5006646;28;20041;-82
2023/01/04 05:28:52;;;;;;;5.35;3.75;;;10.30;99.90;;;;;;5005845;28;20061;-82
2023/01/04 05:31:17;;;;;;;9.88;4.22;;;10.30;99.90;;;;;;5020247;28;20037;-81
2023/01/04 05:33:43;;;;;;;6.28;4.35;;;10.40;99.90;;;;;;5020012;28;20034;-82
2023/01/04 05:36:08;;;;;;;6.15;3.90;;;10.30;99.90;;;;;;5004134;28;20042;-82
2023/01/04 05:38:34;;;;;;;5.85;4.13;;;10.40;99.90;;;;;;5019859;28;20088;-82
2023/01/04 05:40:59;;;;;;;5.05;4.03;;;10.50;99.90;;;;;;5019792;28;20125;-83
2023/01/04 05:43:25;;;;;;;4.78;3.85;;;10.50;99.90;;;;;;5018745;28;20045;-82
2023/01/04 05:45:53;;;;;;;6.13;4.05;;;10.50;99.90;;;;;;5019597;28;20042;-82
2023/01/04 05:48:20;;;;;;;7.45;3.55;;;10.50;99.90;;;;;;5004543;28;20037;-82
2023/01/04 05:50:46;;;;;;;4.88;3.60;;;10.50;99.90;;;;;;5021711;28;20044;-82
2023/01/04 05:53:13;;;;;;;4.60;3.50;;;10.60;99.90;;;;;;5022109;28;20049;-81
2023/01/04 05:55:39;;;;;;;5.13;3.70;;;10.60;99.90;;;;;;5018571;28;20102;-81
2023/01/04 05:58:05;;;;;;;5.25;3.90;;;10.50;99.90;;;;;;5021968;28;20073;-81
2023/01/04 06:00:30;;;;;;;5.70;4.07;;;10.50;99.90;;;;;;5028929;28;20053;-83
2023/01/04 06:02:56;;;;;;;6.57;4.22;;;10.70;99.90;;;;;;5025859;28;20428;-82
2023/01/04 06:05:23;;;;;;;7.80;4.50;;;10.50;99.90;;;;;;5020430;28;20053;-82
2023/01/04 06:07:49;;;;;;;7.25;4.20;;;10.50;99.90;;;;;;5003449;28;20034;-80
2023/01/04 06:10:15;;;;;;;5.93;3.65;;;10.50;99.90;;;;;;5018793;28;20507;-81
2023/01/04 06:12:41;;;;;;;7.43;3.80;;;10.60;99.90;;;;;;5017006;28;20048;-82
2023/01/04 06:15:08;;;;;;;4.72;3.17;;;10.50;99.90;;;;;;5017942;28;20033;-81
2023/01/04 06:17:34;;;;;;;5.18;3.50;;;10.60;99.90;;;;;;5018457;28;20486;-82
2023/01/04 06:20:00;;;;;;;5.10;3.28;;;10.60;99.90;;;;;;5034233;28;20499;-81
2023/01/04 06:22:26;;;;;;;6.53;3.33;;;10.60;99.90;;;;;;5026634;28;20046;-82
2023/01/04 06:24:52;;;;;;;4.70;3.63;;;10.70;99.90;;;;;;5030489;28;20018;-81
2023/01/04 06:27:18;;;;;;;6.00;3.55;;;10.50;99.90;;;;;;5030450;28;20498;-81
2023/01/04 06:29:43;;;;;;;6.05;3.33;;;10.70;99.90;;;;;;5024666;28;20033;-82
2023/01/04 06:32:09;;;;;;;7.60;3.42;;;10.70;99.90;;;;;;5004914;28;20138;-82
2023/01/04 06:34:34;;;;;;;5.72;3.60;;;10.60;99.90;;;;;;5018389;28;20045;-81
2023/01/04 06:37:00;;;;;;;5.75;3.35;;;10.50;99.90;;;;;;5019111;28;20049;-82
2023/01/04 06:39:26;;;;;;;8.48;3.42;;;10.60;99.90;;;;;;5018895;28;20046;-81
2023/01/04 06:41:51;;;;;;;7.13;3.55;;;10.70;99.90;;;;;;5002659;28;20048;-81
2023/01/04 06:44:17;;;;;;;6.85;3.38;;;10.70;99.90;;;;;;5017453;28;20045;-81
2023/01/04 06:46:43;;;;;;;6.05;2.85;;;10.60;99.90;;;;;;5019296;28;20033;-81
2023/01/04 06:49:08;;;;;;;7.65;3.08;;;10.70;99.90;;;;;;5028812;28;20034;-81
2023/01/04 06:51:34;;;;;;;4.20;2.85;;;10.70;99.90;;;;;;5030618;28;20427;-81
2023/01/04 06:53:59;;;;;;;4.28;3.17;;;10.60;99.90;;;;;;5036244;28;20127;-82
2023/01/04 06:56:25;;;;;;;5.30;3.00;;;10.60;99.90;;;;;;5028485;28;20037;-81
2023/01/04 06:58:51;;;;;;;3.67;2.72;;;10.70;99.90;;;;;;5037424;28;20060;-82
2023/01/04 07:01:17;;;;;;;6.47;2.72;;;10.70;99.90;;;;;;5036858;28;20131;-81
2023/01/04 07:03:42;;;;;;;7.22;2.65;;;10.60;99.90;;;;;;5036320;28;20042;-81
2023/01/04 07:06:09;;;;;;;4.03;2.60;;;10.70;99.90;;;;;;5036588;28;20042;-82
2023/01/04 07:08:35;;;;;;;4.05;3.03;;;10.70;99.90;;;;;;5020156;28;20396;-82
2023/01/04 07:11:00;;;;;;;3.45;2.22;;;10.80;99.90;;;;;;5036211;28;20049;-83
2023/01/04 07:13:26;;;;;;;4.68;2.83;;;10.70;99.90;;;;;;5018897;28;20037;-82
2023/01/04 07:15:51;;;;;;;5.25;2.35;;;10.80;99.90;;;;;;5037577;28;20094;-82
2023/01/04 07:18:17;;;;;;;4.30;2.38;;;10.80;99.90;;;;;;5038437;28;20042;-82
2023/01/04 07:20:43;;;;;;;4.95;2.50;;;10.70;99.90;;;;;;5036684;28;20033;-82
2023/01/04 07:23:08;;;;;;;3.40;2.67;;;10.80;99.90;;;;;;5038555;28;20041;-83
2023/01/04 07:25:34;;;;;;;3.40;2.17;;;10.70;99.90;;;;;;5038268;28;20041;-82
2023/01/04 07:27:59;;;;;;;2.70;2.10;;;10.70;99.90;;;;;;5031823;28;20044;-82
2023/01/04 07:30:25;;;;;;;4.38;2.47;;;10.80;99.90;;;;;;5046261;28;20033;-81
2023/01/04 07:32:51;;;;;;;6.13;2.70;;;10.80;99.90;;;;;;5037172;28;20487;-82
2023/01/04 07:35:17;;;;;;;7.93;3.08;;;10.80;99.90;;;;;;5021313;28;20056;-82
2023/01/04 07:37:43;;;;;;;9.13;3.80;;;10.90;99.90;;;;;;5037720;28;20124;-83
2023/01/04 07:40:10;;;;;;;4.13;2.80;;;11.00;99.90;;;;;;5037787;28;20076;-82
2023/01/04 07:42:36;;;;;;;4.43;3.35;;;11.00;99.90;;;;;;5035870;28;20037;-83
2023/01/04 07:45:02;;;;;;;5.68;2.75;;;11.00;99.90;;;;;;5036537;28;20038;-81
2023/01/04 07:47:28;;;;;;;6.07;2.60;;;11.00;99.90;;;;;;5035907;28;20034;-81
2023/01/04 07:49:53;;;;;;;4.97;2.63;;;11.00;99.90;;;;;;5019486;28;20101;-81
2023/01/04 07:52:19;;;;;;;4.10;2.30;;;11.00;99.90;;;;;;5036141;28;20037;-83
2023/01/04 07:54:45;;;;;;;2.53;1.85;;;11.00;99.90;;;;;;5019038;28;20407;-82
2023/01/04 07:57:10;;;;;;;5.03;2.47;;;11.00;99.90;;;;;;5020753;28;20038;-82
2023/01/04 07:59:36;;;;;;;5.00;1.95;;;11.00;99.90;;;;;;5013107;28;20045;-83
2023/01/04 08:02:02;;;;;;;4.55;2.00;;;11.00;99.90;;;;;;5003076;28;20097;-83
2023/01/04 08:04:27;;;;;;;3.78;2.08;;;11.00;99.90;;;;;;4994870;28;20047;-84
2023/01/04 08:06:53;;;;;;;4.45;2.58;;;11.00;99.90;;;;;;4995631;28;20074;-83
2023/01/04 08:09:18;;;;;;;3.58;1.90;;;10.90;99.90;;;;;;4979524;28;20045;-84
2023/01/04 08:11:44;;;;;;;3.55;2.30;;;10.90;99.90;;;;;;4995018;28;20043;-84
2023/01/04 08:14:10;;;;;;;3.45;2.10;;;11.00;99.90;;;;;;4979130;28;20034;-84
2023/01/04 08:16:38;;;;;;;3.65;2.40;;;10.90;99.90;;;;;;4995174;28;20050;-83
2023/01/04 08:19:07;;;;;;;5.78;2.38;;;10.90;99.90;;;;;;4997546;28;20046;-84
2023/01/04 08:21:35;;;;;;;4.68;2.17;;;11.00;99.90;;;;;;4995752;28;20038;-84
2023/01/04 08:24:01;;;;;;;7.05;2.72;;;10.90;99.90;;;;;;4994698;28;20044;-84
2023/01/04 08:26:27;;;;;;;5.13;2.25;;;11.00;99.90;;;;;;4994596;28;20033;-83
2023/01/04 08:28:53;;;;;;;4.25;2.13;;;11.00;99.90;;;;;;5023846;28;20037;-84
2023/01/04 08:31:22;;;;;;;2.40;1.90;;;11.00;99.90;;;;;;5048334;28;20052;-83
2023/01/04 08:33:48;;;;;;;3.95;2.00;;;11.10;99.90;;;;;;5021650;28;20037;-83
2023/01/04 08:36:24;;;;;;;4.22;1.92;;;11.10;99.90;;;;;;5020401;28;20041;-83
2023/01/04 08:38:52;;;;;;;4.10;2.20;;;11.10;99.90;;;;;;5022003;28;20047;-83
2023/01/04 08:41:18;;;;;;;4.82;2.33;;;11.00;99.90;;;;;;5043219;28;20076;-82
2023/01/04 08:43:44;;;;;;;6.30;2.03;;;11.20;99.90;;;;;;5028252;28;20041;-83
2023/01/04 08:46:11;;;;;;;4.90;2.45;;;11.10;99.90;;;;;;5041977;28;20091;-84
2023/01/04 08:48:37;;;;;;;3.92;2.60;;;11.10;99.90;;;;;;5024988;28;20045;-83
2023/01/04 08:51:06;;;;;;;4.43;2.33;;;11.10;99.90;;;;;;5040849;28;20037;-83
2023/01/04 08:53:32;;;;;;;4.20;2.70;;;11.10;99.90;;;;;;5039701;28;20049;-83
2023/01/04 08:55:59;;;;;;;6.13;2.97;;;11.00;99.90;;;;;;5004733;28;20038;-85
2023/01/04 08:58:26;;;;;;;5.50;3.45;;;11.10;99.90;;;;;;4987492;28;20034;-80
2023/01/04 09:00:52;;;;;;;6.03;2.67;;;11.00;99.90;;;;;;5019781;28;20045;-81
2023/01/04 09:03:17;;;;;;;4.38;2.92;;;11.10;99.90;;;;;;5015881;28;20177;-75
2023/01/04 09:05:43;;;;;;;5.55;3.20;;;11.20;99.90;;;;;;5013731;28;20038;-75
2023/01/04 09:08:10;;;;;;;4.93;2.80;;;11.10;99.90;;;;;;5013590;28;20116;-75
2023/01/04 09:10:38;;;;;;;4.25;2.70;;;11.20;99.90;;;;;;5014835;28;20045;-75
2023/01/04 09:13:05;;;;;;;3.53;2.28;;;11.10;99.90;;;;;;5012895;28;20068;-75
2023/01/04 09:15:32;;;;;;;3.78;2.03;;;11.20;99.90;;;;;;5013280;28;20088;-75
2023/01/04 09:17:57;;;;;;;4.65;2.33;;;11.30;99.90;;;;;;5013601;28;20045;-75
2023/01/04 09:20:23;;;;;;;2.47;2.03;;;11.20;99.90;;;;;;5014527;28;20490;-75
2023/01/04 09:22:48;;;;;;;4.28;2.40;;;11.10;99.90;;;;;;5012351;28;20038;-75
2023/01/04 09:25:14;;;;;;;2.90;1.80;;;11.30;99.90;;;;;;5014598;28;20556;-75
2023/01/04 09:27:39;;;;;;;3.72;1.90;;;11.30;99.90;;;;;;5013079;28;20492;-75
2023/01/04 09:30:06;;;;;;;5.07;1.70;;;11.40;99.90;;;;;;5013296;28;20061;-75
2023/01/04 09:32:31;;;;;;;5.05;1.92;;;11.30;99.90;;;;;;5012652;28;20122;-75
2023/01/04 09:34:57;;;;;;;4.78;2.13;;;11.40;99.90;;;;;;5013306;28;20077;-75
2023/01/04 09:37:23;;;;;;;3.95;1.90;;;11.40;99.90;;;;;;5012721;28;20057;-75
2023/01/04 09:39:48;;;;;;;5.38;2.67;;;11.50;99.90;;;;;;5012915;28;20128;-75
2023/01/04 09:42:21;;;;;;;3.47;2.00;;;11.50;99.90;;;;;;5012751;28;20100;-75
2023/01/04 09:44:56;;;;;;;5.72;2.10;;;11.40;99.90;;;;;;5013160;28;20120;-75
2023/01/04 09:47:47;;;;;;;4.00;2.13;;;11.50;99.90;;;;;;5012530;28;20042;-75
2023/01/04 09:50:40;;;;;;;4.95;2.70;;;11.40;99.90;;;;;;5014269;28;20045;-75
2023/01/04 09:53:25;;;;;;;6.05;2.83;;;11.50;99.90;;;;;;5011137;28;20074;-75
2023/01/04 09:55:54;;;;;;;8.07;3.60;;;11.40;99.90;;;;;;5012478;28;20124;-75
2023/01/04 09:58:31;;;;;;;7.07;3.47;;;11.60;99.90;;;;;;5014037;28;20096;-75
2023/01/04 10:01:04;;;;;;;9.30;4.72;;;11.40;99.90;;;;;;5013995;28;20041;-75
2023/01/04 10:03:37;;;;;;;8.80;4.13;;;11.60;99.90;;;;;;5013127;28;20045;-75
2023/01/04 10:06:04;;;;;;;;;;;11.60;99.90;;;;;;5013149;28;20125;-75
2023/01/04 10:08:30;;;;;;;7.63;4.32;;;11.50;99.90;;;;;;5013558;28;19917;-75
2023/01/04 10:11:29;;;;;;;13.05;4.90;;;11.60;99.90;;;;;;5012328;28;20037;-75
2023/01/04 10:14:39;;;;;;;16.30;4.95;;;11.60;99.90;;;;;;5011472;28;20050;-75
2023/01/04 10:17:10;;;;;;;12.23;4.97;;;11.60;99.90;;;;;;5009008;28;20049;-74
2023/01/04 10:19:45;;;;;;;14.02;4.72;;;11.80;99.90;;;;;;5012499;28;20038;-75
2023/01/04 10:22:37;;;;;;;14.93;5.28;;;11.70;99.90;;;;;;5013196;28;20041;-75
2023/01/04 10:25:20;;;;;;;15.82;5.70;;;11.60;99.90;;;;;;5012147;28;20034;-75
2023/01/04 10:28:16;;;;;;;14.98;5.90;;;11.80;99.90;;;;;;5012073;28;20080;-72
2023/01/04 10:31:01;;;;;;;15.80;5.13;;;11.80;99.90;;;;;;5011233;28;20046;-72
2023/01/04 10:33:45;;;;;;;16.08;4.82;;;11.90;99.90;;;;;;5012312;28;20050;-72
2023/01/04 10:36:20;;;;;;;14.30;4.97;;;12.00;99.90;;;;;;5013243;28;20041;-73
2023/01/04 10:38:51;;;;;;;17.33;4.22;;;11.90;99.90;;;;;;5013227;28;20049;-73
2023/01/04 10:41:23;;;;;;;13.57;4.22;;;11.90;99.90;;;;;;5012855;28;20079;-73
2023/01/04 10:44:16;;;;;;;19.38;4.38;;;12.00;99.90;;;;;;5002281;28;20042;-73
2023/01/04 10:46:52;;;;;;;12.80;4.67;;;12.00;99.90;;;;;;4995897;28;20085;-72
2023/01/04 10:49:32;;;;;;;20.77;4.95;;;12.00;99.90;;;;;;5003691;28;20670;-72
2023/01/04 10:52:18;;;;;;;22.58;5.07;;;11.90;99.90;;;;;;4999310;28;20512;-73
2023/01/04 10:54:54;;;;;;;18.70;5.22;;;12.00;99.90;;;;;;4992772;28;20042;-73
2023/01/04 10:57:29;;;;;;;23.02;5.53;;;12.10;99.90;;;;;;4998372;28;20076;-73
2023/01/04 11:00:08;;;;;;;16.98;4.95;;;12.00;99.90;;;;;;5000822;28;20427;-72
2023/01/04 11:02:44;;;;;;;25.52;5.97;;;12.00;99.90;;;;;;4999407;28;20054;-73
2023/01/04 11:05:20;;;;;;;25.83;5.72;;;12.10;99.90;;;;;;4997109;28;20096;-73
2023/01/04 11:07:50;;;;;;;21.40;6.15;;;12.00;99.90;;;;;;4995290;28;20070;-73
2023/01/04 11:10:45;;;;;;;23.50;6.53;;;11.90;99.90;;;;;;5000405;28;20038;-73
2023/01/04 11:13:11;;;;;;;20.25;5.70;;;12.20;99.90;;;;;;4992340;28;20049;-73
2023/01/04 11:15:36;;;;;;;24.42;6.32;;;12.20;99.90;;;;;;4994282;28;20037;-73
2023/01/04 11:18:05;;;;;;;34.05;8.98;;;12.20;99.90;;;;;;4992823;28;20400;-73
2023/01/04 11:20:31;;;;;;;30.80;6.90;;;12.30;99.90;;;;;;4991414;28;20042;-73
2023/01/04 11:23:03;;;;;;;32.85;7.68;;;12.10;99.90;;;;;;4990693;28;20046;-73
2023/01/04 11:25:36;;;;;;;37.20;7.20;;;12.30;99.90;;;;;;4991282;28;20038;-73
2023/01/04 11:28:21;;;;;;;32.47;6.93;;;12.30;99.90;;;;;;4991621;28;20807;-73
2023/01/04 11:30:56;;;;;;;18.83;4.82;;;12.30;99.90;;;;;;4992891;28;20035;-73
2023/01/04 11:33:23;;;;;;;17.98;4.82;;;12.40;99.90;;;;;;4990710;28;20046;-73
2023/01/04 11:35:52;;;;;;;26.17;4.80;;;12.40;99.90;;;;;;4993673;28;20053;-73
2023/01/04 11:38:23;;;;;;;21.40;6.28;;;12.30;99.90;;;;;;5019442;28;20120;-73
2023/01/04 11:41:06;;;;;;;35.00;7.07;;;12.30;99.90;;;;;;5026741;28;20471;-73
2023/01/04 11:43:38;;;;;;;29.65;6.03;;;12.10;99.90;;;;;;5031091;28;20480;-73
2023/01/04 11:46:16;;;;;;;30.52;7.10;;;12.30;99.90;;;;;;5006242;28;20045;-72
2023/01/04 11:48:44;;;;;;;31.13;7.40;;;12.10;99.90;;;;;;5019863;28;20495;-72
2023/01/04 11:51:25;;;;;;;32.58;6.28;;;12.30;99.90;;;;;;5010898;28;20129;-73
2023/01/04 11:54:00;;;;;;;29.90;7.70;;;12.20;99.90;;;;;;5010160;28;20042;-73
2023/01/04 11:56:28;;;;;;;25.77;6.43;;;12.10;99.90;;;;;;5011817;28;20034;-72
2023/01/04 11:59:13;;;;;;;28.33;7.03;;;12.20;99.90;;;;;;5010364;28;20037;-73
2023/01/04 12:02:04;;;;;;;19.48;5.47;;;12.30;99.90;;;;;;5010315;28;20038;-73
2023/01/04 12:04:29;;;;;;;28.20;6.10;;;12.40;99.90;;;;;;4999417;28;20049;-74
2023/01/04 12:07:00;;;;;;;29.75;6.22;;;12.30;99.90;;;;;;5010387;28;20095;-74
2023/01/04 12:09:29;;;;;;;28.80;5.65;;;12.30;99.90;;;;;;5010670;28;20575;-74
2023/01/04 12:11:58;;;;;;;21.63;5.72;;;12.10;99.90;;;;;;5010499;28;20170;-75
2023/01/04 12:14:31;;;;;;;23.77;5.40;;;12.30;99.90;;;;;;5009818;28;20061;-75
2023/01/04 12:17:28;;;;;;;18.92;5.20;;;12.40;99.90;;;;;;5014537;28;20046;-75
2023/01/04 12:19:55;;;;;;;21.25;4.82;;;12.10;99.90;;;;;;5015557;28;20127;-75
2023/01/04 12:22:37;;;;;;;23.55;6.68;;;12.20;99.90;;;;;;5013958;28;20484;-75
2023/01/04 12:25:06;;;;;;;16.08;4.85;;;12.20;99.90;;;;;;5014724;28;20092;-75
2023/01/04 12:27:33;;;;;;;21.63;5.57;;;12.10;99.90;;;;;;5014499;28;20472;-75
2023/01/04 12:30:00;;;;;;;24.33;5.93;;;12.30;99.90;;;;;;5014344;28;20048;-75
2023/01/04 12:32:26;;;;;;;21.50;5.32;;;12.30;99.90;;;;;;5013617;28;20053;-75
2023/01/04 12:34:52;;;;;;;22.13;4.90;;;12.40;99.90;;;;;;5014380;28;20103;-75
2023/01/04 12:37:36;;;;;;;20.08;4.80;;;12.20;99.90;;;;;;5014455;28;20057;-75
2023/01/04 12:40:22;;;;;;;18.98;4.45;;;12.10;99.90;;;;;;5014079;28;20522;-75
2023/01/04 12:43:14;;;;;;;19.10;4.07;;;12.20;99.90;;;;;;5012967;28;20546;-75
2023/01/04 12:45:44;;;;;;;15.82;3.88;;;12.20;99.90;;;;;;5013786;28;20073;-74
2023/01/04 12:51:25;;;;;;;16.77;3.80;;;12.10;99.90;;;;;;5034879;28;20107;-71
2023/01/04 12:53:52;;;;;;;13.38;3.10;;;12.20;99.90;;;;;;5031555;28;20060;-72
2023/01/04 12:56:18;;;;;;;9.60;3.58;;;12.30;99.90;;;;;;5034832;28;20037;-74
2023/01/04 12:59:07;;;;;;;11.00;3.38;;;12.30;99.90;;;;;;5017143;28;20045;-74
2023/01/04 13:01:33;;;;;;;11.95;3.03;;;12.20;99.90;;;;;;5033855;28;20104;-73
2023/01/04 13:04:21;;;;;;;11.82;3.08;;;12.40;99.90;;;;;;5032281;28;20037;-75
2023/01/04 13:06:46;;;;;;;6.65;2.40;;;12.40;99.90;;;;;;5033073;28;20094;-73
2023/01/04 13:09:19;;;;;;;11.30;2.53;;;12.20;99.90;;;;;;5033191;28;20117;-73
2023/01/04 13:12:05;;;;;;;8.13;2.30;;;12.20;99.90;;;;;;5032898;28;20041;-73
2023/01/04 13:14:43;;;;;;;6.97;2.38;;;12.10;99.90;;;;;;5032242;28;20045;-73
2023/01/04 13:17:21;;;;;;;8.93;2.33;;;12.20;99.90;;;;;;5032633;28;20459;-73
2023/01/04 13:19:47;;;;;;;8.65;2.30;;;12.40;99.90;;;;;;5032866;28;20076;-73
2023/01/04 13:22:28;;;;;;;12.70;2.85;;;12.20;99.90;;;;;;5032471;28;20048;-73
2023/01/04 13:24:56;;;;;;;11.80;2.47;;;12.30;99.90;;;;;;5016329;28;20535;-72
2023/01/04 13:27:23;;;;;;;12.82;2.47;;;12.40;99.90;;;;;;5031251;28;20033;-73
2023/01/04 13:29:50;;;;;;;13.95;2.50;;;12.30;99.90;;;;;;5032691;28;20040;-75
2023/01/04 13:32:23;;;;;;;17.42;3.50;;;12.30;99.90;;;;;;5032141;28;20053;-75
2023/01/04 13:34:51;;;;;;;;;;;12.30;99.90;;;;;;5016663;28;20041;-75
2023/01/04 13:37:26;;;;;;;13.85;2.83;;;12.40;99.90;;;;;;5025521;28;19974;-74
2023/01/04 13:40:14;;;;;;;9.18;2.75;;;12.20;99.90;;;;;;5023164;28;20045;-75
2023/01/04 13:42:43;;;;;;;16.63;4.15;;;12.30;99.90;;;;;;5000311;28;20038;-78
2023/01/04 13:45:31;;;;;;;14.05;3.20;;;12.30;99.90;;;;;;5025874;28;20037;-76
2023/01/04 13:47:59;;;;;;;16.63;3.47;;;12.30;99.90;;;;;;5015467;28;20160;-75
2023/01/04 13:50:42;;;;;;;18.23;4.38;;;12.30;99.90;;;;;;5032353;28;20143;-76
2023/01/04 13:53:34;;;;;;;15.23;3.38;;;12.10;99.90;;;;;;5031612;28;20049;-74
2023/01/04 13:56:02;;;;;;;29.10;4.35;;;12.30;99.90;;;;;;5013734;28;20084;-76